Saint-Philippe-De-Neri, Canada
Current Conditions -  °F | °C
As of 6:53 AM on Thursday 23 Oct 2014 (Local Time) from KFVE Reporting Station
Overcast Overcast  
Wind Chill: 33°   Ceiling: 4800
Heat Index: 40°   Visibility: 10mi
Dew Point: 33°   Wind: 12mph
Humidity: 77%   Direction: 30°NNE
Pressure: 30.21"   Gusts: 18mph
Location:  47.45°N, 69.88°W
Report Text: KFVE 231053Z AUTO 03010G16KT 10SM OVC048 04/01 A3021 RMK AO2 SLP236 T00440006
Loading
Personal Weather Stations






























Interactive Weather Map
Tropical Storm Tracking
New forecast layout! Learn more

10-Day Weather Forecast

Advertisements
Track Severe Weather on mobile